createdAt,value
2019-02-14T00:01:44.331Z,6.00
2019-02-14T00:04:14.319Z,6.00
2019-02-14T00:06:43.863Z,6.00
2019-02-14T00:09:13.627Z,5.90
2019-02-14T00:11:44.664Z,5.90
2019-02-14T00:14:16.089Z,5.80
2019-02-14T00:16:46.139Z,5.80
2019-02-14T00:19:15.516Z,5.80
2019-02-14T00:21:45.147Z,5.70
2019-02-14T00:24:21.543Z,5.70
2019-02-14T00:26:59.985Z,5.60
2019-02-14T00:29:32.281Z,5.60
2019-02-14T00:32:06.326Z,5.60
2019-02-14T00:34:37.973Z,5.60
2019-02-14T00:37:08.140Z,5.60
2019-02-14T00:39:40.669Z,5.60
2019-02-14T00:42:17.083Z,5.50
2019-02-14T00:44:51.997Z,5.50
2019-02-14T00:47:30.265Z,5.50
2019-02-14T00:50:00.503Z,5.50
2019-02-14T00:52:30.492Z,5.50
2019-02-14T00:55:02.552Z,5.50
2019-02-14T00:57:34.356Z,5.50
2019-02-14T01:00:10.326Z,5.50
2019-02-14T01:02:40.987Z,5.50
2019-02-14T01:05:11.021Z,5.50
2019-02-14T01:07:41.917Z,5.50
2019-02-14T01:10:12.066Z,5.50
2019-02-14T01:12:50.184Z,5.50
2019-02-14T01:15:23.469Z,5.40
2019-02-14T01:17:58.531Z,5.40
2019-02-14T01:20:38.954Z,5.40
2019-02-14T01:23:13.854Z,5.40
2019-02-14T01:25:49.053Z,5.40
2019-02-14T01:28:20.565Z,5.40
2019-02-14T01:30:54.198Z,5.50
2019-02-14T01:33:23.993Z,5.50
2019-02-14T01:35:55.359Z,5.50
2019-02-14T01:38:31.379Z,5.50
2019-02-14T01:41:00.328Z,5.50
2019-02-14T01:43:29.914Z,5.50
2019-02-14T01:45:59.257Z,5.50
2019-02-14T01:48:28.543Z,5.50
2019-02-14T01:50:58.056Z,5.50
2019-02-14T01:53:27.293Z,5.50
2019-02-14T01:55:56.809Z,5.50
2019-02-14T01:58:26.417Z,5.50
2019-02-14T02:00:55.516Z,5.50
2019-02-14T02:03:25.021Z,5.50
2019-02-14T02:05:54.059Z,5.50
2019-02-14T02:08:23.140Z,5.50
2019-02-14T02:10:52.290Z,5.40
2019-02-14T02:13:21.421Z,5.40
2019-02-14T02:15:50.326Z,5.40
2019-02-14T02:18:19.285Z,5.40
2019-02-14T02:20:48.332Z,5.40
2019-02-14T02:23:17.193Z,5.40
2019-02-14T02:25:46.069Z,5.40
2019-02-14T02:28:15.075Z,5.30
2019-02-14T02:30:43.941Z,5.30
2019-02-14T02:33:12.944Z,5.20
2019-02-14T02:35:41.903Z,5.20
2019-02-14T02:38:10.802Z,5.20
2019-02-14T02:40:39.878Z,5.20
2019-02-14T02:43:08.768Z,5.10
2019-02-14T02:45:39.573Z,5.10
2019-02-14T02:48:08.933Z,5.10
2019-02-14T02:50:37.811Z,5.10
2019-02-14T02:53:06.745Z,5.10
2019-02-14T02:55:35.702Z,5.10
2019-02-14T02:58:04.607Z,5.00
2019-02-14T03:00:33.545Z,5.00
2019-02-14T03:03:02.477Z,5.00
2019-02-14T03:05:31.351Z,5.00
2019-02-14T03:08:00.186Z,5.00
2019-02-14T03:10:29.064Z,5.00
2019-02-14T03:12:57.924Z,5.00
2019-02-14T03:15:26.832Z,5.00
2019-02-14T03:17:55.678Z,5.00
2019-02-14T03:20:24.702Z,5.10
2019-02-14T03:22:53.546Z,5.10
2019-02-14T03:25:22.474Z,5.10
2019-02-14T03:27:51.493Z,5.00
2019-02-14T03:30:20.398Z,5.00
2019-02-14T03:32:49.306Z,5.00
2019-02-14T03:35:18.300Z,5.00
2019-02-14T03:37:47.229Z,5.00
2019-02-14T03:40:16.159Z,5.00
2019-02-14T03:42:45.101Z,4.90
2019-02-14T03:45:15.994Z,4.90
2019-02-14T03:47:45.021Z,4.90
2019-02-14T03:50:14.468Z,4.90
2019-02-14T03:52:46.238Z,4.90
2019-02-14T03:55:15.203Z,4.90
2019-02-14T03:57:44.129Z,4.90
2019-02-14T04:00:14.540Z,4.90
2019-02-14T04:02:43.498Z,4.90
2019-02-14T04:05:12.416Z,4.90
2019-02-14T04:07:41.356Z,4.80
2019-02-14T04:10:11.369Z,4.80
2019-02-14T04:12:40.326Z,4.80
2019-02-14T04:15:11.675Z,4.80
2019-02-14T04:17:40.739Z,4.70
2019-02-14T04:20:09.738Z,4.80
2019-02-14T04:22:38.816Z,4.80
2019-02-14T04:25:07.738Z,4.80
2019-02-14T04:27:36.695Z,4.70
2019-02-14T04:30:06.176Z,4.70
2019-02-14T04:32:35.134Z,4.70
2019-02-14T04:35:04.113Z,4.60
2019-02-14T04:37:33.018Z,4.60
2019-02-14T04:40:02.244Z,4.60
2019-02-14T04:42:31.294Z,4.60
2019-02-14T04:45:01.155Z,4.60
2019-02-14T04:47:30.234Z,4.60
2019-02-14T04:49:59.084Z,4.60
2019-02-14T04:52:28.016Z,4.60
2019-02-14T04:54:56.918Z,4.60
2019-02-14T04:57:25.790Z,4.60
2019-02-14T04:59:54.709Z,4.60
2019-02-14T05:02:23.643Z,4.50
2019-02-14T05:04:52.513Z,4.50
2019-02-14T05:07:21.370Z,4.50
2019-02-14T05:09:50.202Z,4.50
2019-02-14T05:12:19.126Z,4.60
2019-02-14T05:14:47.973Z,4.60
2019-02-14T05:17:16.842Z,4.60
2019-02-14T05:19:45.700Z,4.60
2019-02-14T05:22:14.579Z,4.60
2019-02-14T05:24:43.534Z,4.60
2019-02-14T05:27:12.502Z,4.60
2019-02-14T05:29:41.385Z,4.60
2019-02-14T05:32:10.245Z,4.60
2019-02-14T05:34:39.070Z,4.60
2019-02-14T05:37:08.056Z,4.60
2019-02-14T05:39:36.904Z,4.60
2019-02-14T05:42:05.784Z,4.60
2019-02-14T05:44:34.659Z,4.60
2019-02-14T05:47:03.810Z,4.60
2019-02-14T05:49:34.094Z,4.60
2019-02-14T05:52:02.958Z,4.60
2019-02-14T05:54:31.882Z,4.60
2019-02-14T05:57:00.823Z,4.50
2019-02-14T05:59:29.870Z,4.50
2019-02-14T06:01:58.726Z,4.50
2019-02-14T06:04:27.642Z,4.50
2019-02-14T06:07:01.185Z,4.50
2019-02-14T06:09:27.154Z,4.50
2019-02-14T06:11:56.131Z,4.50
2019-02-14T06:14:25.035Z,4.50
2019-02-14T06:16:54.070Z,4.50
2019-02-14T06:19:23.128Z,4.50
2019-02-14T06:21:52.224Z,4.50
2019-02-14T06:24:21.180Z,4.50
2019-02-14T06:26:50.012Z,4.40
2019-02-14T06:29:18.919Z,4.40
2019-02-14T06:31:49.602Z,4.40
2019-02-14T06:34:20.421Z,4.40
2019-02-14T06:36:50.139Z,4.40
2019-02-14T06:39:19.026Z,4.40
2019-02-14T06:41:47.927Z,4.40
2019-02-14T06:44:16.885Z,4.40
2019-02-14T06:46:45.753Z,4.40
2019-02-14T06:49:14.619Z,4.30
2019-02-14T06:51:43.470Z,4.30
2019-02-14T06:54:12.442Z,4.20
2019-02-14T06:56:41.369Z,4.20
2019-02-14T06:59:10.313Z,4.20
2019-02-14T07:01:39.192Z,4.20
2019-02-14T07:04:08.100Z,4.20
2019-02-14T07:06:37.005Z,4.20
2019-02-14T07:09:06.527Z,4.20
2019-02-14T07:11:35.488Z,4.20
2019-02-14T07:14:04.562Z,4.20
2019-02-14T07:16:33.512Z,4.30
2019-02-14T07:19:02.512Z,4.20
2019-02-14T07:21:31.475Z,4.30
2019-02-14T07:24:00.329Z,4.30
2019-02-14T07:26:29.270Z,4.30
2019-02-14T07:28:58.213Z,4.30
2019-02-14T07:31:27.158Z,4.30
2019-02-14T07:33:56.133Z,4.40
2019-02-14T07:36:25.107Z,4.40
2019-02-14T07:38:54.130Z,4.40
2019-02-14T07:41:23.142Z,4.40
2019-02-14T07:43:52.082Z,4.40
2019-02-14T07:46:22.738Z,4.30
2019-02-14T07:48:51.598Z,4.30
2019-02-14T07:51:20.481Z,4.30
2019-02-14T07:53:49.573Z,4.30
2019-02-14T07:56:18.435Z,4.40
2019-02-14T07:58:47.371Z,4.40
2019-02-14T08:01:16.459Z,4.40
2019-02-14T08:03:45.371Z,4.40
2019-02-14T08:06:14.254Z,4.40
2019-02-14T08:08:43.171Z,4.50
2019-02-14T08:11:12.274Z,4.50
2019-02-14T08:13:41.265Z,4.60
2019-02-14T08:16:10.128Z,4.60
2019-02-14T08:18:38.966Z,4.70
2019-02-14T08:21:07.919Z,4.70
2019-02-14T08:23:36.775Z,4.80
2019-02-14T08:26:10.782Z,4.80
2019-02-14T08:28:36.462Z,4.90
2019-02-14T08:31:05.319Z,5.00
2019-02-14T08:33:34.193Z,5.00
2019-02-14T08:36:03.130Z,5.10
2019-02-14T08:38:32.021Z,5.20
2019-02-14T08:41:00.914Z,5.30
2019-02-14T08:43:29.774Z,5.40
2019-02-14T08:45:58.625Z,5.50
2019-02-14T08:48:27.597Z,5.60
2019-02-14T08:50:56.551Z,5.90
2019-02-14T08:53:25.441Z,6.80
2019-02-14T08:55:54.389Z,8.10
2019-02-14T08:58:23.262Z,9.50
2019-02-14T09:00:52.193Z,10.60
2019-02-14T09:03:21.033Z,11.30
2019-02-14T09:05:50.017Z,12.00
2019-02-14T09:08:19.010Z,13.10
2019-02-14T09:10:47.931Z,14.30
2019-02-14T09:13:17.470Z,15.00
2019-02-14T09:15:46.523Z,15.30
2019-02-14T09:18:15.454Z,15.80
2019-02-14T09:20:44.307Z,16.50
2019-02-14T09:23:14.686Z,16.80
2019-02-14T09:25:43.860Z,16.90
2019-02-14T09:28:14.793Z,17.30
2019-02-14T09:30:44.098Z,17.30
2019-02-14T09:33:13.059Z,17.60
2019-02-14T09:35:41.885Z,18.50
2019-02-14T09:38:10.901Z,19.10
2019-02-14T09:40:39.750Z,19.90
2019-02-14T09:43:08.711Z,20.00
2019-02-14T09:45:37.559Z,20.40
2019-02-14T09:48:06.430Z,20.90
2019-02-14T09:50:35.274Z,21.10
2019-02-14T09:53:04.226Z,21.50
2019-02-14T09:55:33.070Z,21.40
2019-02-14T09:58:01.938Z,21.50
2019-02-14T10:00:30.813Z,21.60
2019-02-14T10:02:59.753Z,22.10
2019-02-14T10:05:28.609Z,21.90
2019-02-14T10:07:57.562Z,21.30
2019-02-14T10:10:26.575Z,21.40
2019-02-14T10:12:55.481Z,20.60
2019-02-14T10:15:24.437Z,20.70
2019-02-14T10:17:53.326Z,20.50
2019-02-14T10:20:22.190Z,20.90
2019-02-14T10:22:51.197Z,21.20
2019-02-14T10:25:20.082Z,21.40
2019-02-14T10:27:49.034Z,21.90
2019-02-14T10:30:18.487Z,22.10
2019-02-14T10:32:47.547Z,22.70
2019-02-14T10:35:16.631Z,23.00
2019-02-14T10:37:45.588Z,22.80
2019-02-14T10:40:14.967Z,22.40
2019-02-14T10:42:43.831Z,22.10
2019-02-14T10:45:14.698Z,21.90
2019-02-14T10:47:43.603Z,22.30
2019-02-14T10:50:12.626Z,23.00
2019-02-14T10:52:41.503Z,23.70
2019-02-14T10:55:11.132Z,24.00
2019-02-14T10:57:40.118Z,24.50
2019-02-14T11:00:19.011Z,24.00
2019-02-14T11:02:49.017Z,23.60
2019-02-14T11:05:18.528Z,24.10
2019-02-14T11:07:47.562Z,24.30
2019-02-14T11:10:16.692Z,24.00
2019-02-14T11:12:45.713Z,23.50
2019-02-14T11:15:16.002Z,23.60
2019-02-14T11:17:45.004Z,24.20
2019-02-14T11:20:14.358Z,24.30
2019-02-14T11:22:43.330Z,24.20
2019-02-14T11:25:15.354Z,24.20
2019-02-14T11:27:44.222Z,24.20
2019-02-14T11:30:13.659Z,23.40
2019-02-14T11:32:42.630Z,22.00
2019-02-14T11:35:11.675Z,21.70
2019-02-14T11:37:40.635Z,21.20
2019-02-14T11:40:10.782Z,20.70
2019-02-14T11:42:39.819Z,19.60
2019-02-14T11:45:11.222Z,19.40
2019-02-14T11:47:40.110Z,19.40
2019-02-14T11:50:10.090Z,19.00
2019-02-14T11:52:38.927Z,18.00
2019-02-14T11:55:08.199Z,18.10
2019-02-14T11:57:37.102Z,17.70
2019-02-14T12:00:08.819Z,17.50
2019-02-14T12:02:38.012Z,17.10
2019-02-14T12:05:07.457Z,16.10
2019-02-14T12:07:36.438Z,16.00
2019-02-14T12:10:13.281Z,15.60
2019-02-14T12:12:37.208Z,15.70
2019-02-14T12:15:06.638Z,15.90
2019-02-14T12:17:35.483Z,16.00
2019-02-14T12:20:04.935Z,15.90
2019-02-14T12:22:33.769Z,15.60
2019-02-14T12:25:02.718Z,15.30
2019-02-14T12:27:31.579Z,15.20
2019-02-14T12:30:00.468Z,15.30
2019-02-14T12:32:29.455Z,15.00
2019-02-14T12:35:00.504Z,14.80
2019-02-14T12:37:29.486Z,14.80
2019-02-14T12:39:58.488Z,14.80
2019-02-14T12:42:27.341Z,14.70
2019-02-14T12:44:56.304Z,14.70
2019-02-14T12:47:25.307Z,14.70
2019-02-14T12:49:54.180Z,14.80
2019-02-14T12:52:23.055Z,14.80
2019-02-14T12:54:51.923Z,14.60
2019-02-14T12:57:20.846Z,14.40
2019-02-14T12:59:49.819Z,14.30
2019-02-14T13:02:21.414Z,14.20
2019-02-14T13:04:50.578Z,14.10
2019-02-14T13:07:20.436Z,13.80
2019-02-14T13:09:49.617Z,13.80
2019-02-14T13:12:18.606Z,13.70
2019-02-14T13:14:47.552Z,13.70
2019-02-14T13:17:16.693Z,13.60
2019-02-14T13:19:45.566Z,13.60
2019-02-14T13:22:14.455Z,13.30
2019-02-14T13:24:43.300Z,13.10
2019-02-14T13:27:12.253Z,12.70
2019-02-14T13:29:43.971Z,12.60
2019-02-14T13:32:13.680Z,12.60
2019-02-14T13:34:42.684Z,12.60
2019-02-14T13:37:11.661Z,12.50
2019-02-14T13:39:40.578Z,12.50
2019-02-14T13:42:09.943Z,12.50
2019-02-14T13:44:38.901Z,12.40
2019-02-14T13:47:07.787Z,12.40
2019-02-14T13:49:36.710Z,12.50
2019-02-14T13:52:05.790Z,12.40
2019-02-14T13:54:34.674Z,12.40
2019-02-14T13:57:03.622Z,12.40
2019-02-14T13:59:32.563Z,12.30
2019-02-14T14:02:02.554Z,12.40
2019-02-14T14:04:32.217Z,12.40
2019-02-14T14:07:01.539Z,12.40
2019-02-14T14:09:38.463Z,12.30
2019-02-14T14:12:03.429Z,12.30
2019-02-14T14:14:32.953Z,12.20
2019-02-14T14:17:01.905Z,12.20
2019-02-14T14:19:30.944Z,12.10
2019-02-14T14:21:59.897Z,12.00
2019-02-14T14:24:29.106Z,12.00
2019-02-14T14:26:58.011Z,11.90
2019-02-14T14:29:29.611Z,11.90
2019-02-14T14:32:00.892Z,11.90
2019-02-14T14:34:30.411Z,11.90
2019-02-14T14:37:01.321Z,11.90
2019-02-14T14:39:30.334Z,11.90
2019-02-14T14:41:59.278Z,11.90
2019-02-14T14:44:33.192Z,11.90
2019-02-14T14:47:06.443Z,11.90
2019-02-14T14:49:35.658Z,11.90
2019-02-14T14:52:04.714Z,11.90
2019-02-14T14:54:33.638Z,11.80
2019-02-14T14:57:02.797Z,11.80
2019-02-14T14:59:31.994Z,11.80
2019-02-14T15:02:00.967Z,11.80
2019-02-14T15:04:30.044Z,11.70
2019-02-14T15:06:59.044Z,11.70
2019-02-14T15:09:27.915Z,11.70
2019-02-14T15:11:57.281Z,11.70
2019-02-14T15:14:26.121Z,11.70
2019-02-14T15:16:55.248Z,11.70
2019-02-14T15:19:24.296Z,11.60
2019-02-14T15:21:53.408Z,11.60
2019-02-14T15:24:22.343Z,11.60
2019-02-14T15:26:51.266Z,11.50
2019-02-14T15:29:20.140Z,11.50
2019-02-14T15:31:49.072Z,11.50
2019-02-14T15:34:18.013Z,11.50
2019-02-14T15:36:47.215Z,11.40
2019-02-14T15:39:17.538Z,11.30
2019-02-14T15:41:46.430Z,11.30
2019-02-14T15:44:15.298Z,11.30
2019-02-14T15:46:44.192Z,11.30
2019-02-14T15:49:13.139Z,11.30
2019-02-14T15:51:43.817Z,11.20
2019-02-14T15:54:12.738Z,11.20
2019-02-14T15:56:41.697Z,11.10
2019-02-14T15:59:10.839Z,11.10
2019-02-14T16:01:41.959Z,11.00
2019-02-14T16:04:10.379Z,11.00
2019-02-14T16:06:39.321Z,10.90
2019-02-14T16:09:08.359Z,10.90
2019-02-14T16:11:38.743Z,10.90
2019-02-14T16:14:07.847Z,10.80
2019-02-14T16:16:36.725Z,10.80
2019-02-14T16:19:05.678Z,10.70
2019-02-14T16:21:34.598Z,10.70
2019-02-14T16:24:03.547Z,10.60
2019-02-14T16:26:32.429Z,10.60
2019-02-14T16:29:02.130Z,10.60
2019-02-14T16:31:31.996Z,10.50
2019-02-14T16:34:00.870Z,10.50
2019-02-14T16:36:29.852Z,10.50
2019-02-14T16:39:01.216Z,10.40
2019-02-14T16:41:29.434Z,10.40
2019-02-14T16:43:58.344Z,10.30
2019-02-14T16:46:28.590Z,10.30
2019-02-14T16:48:58.690Z,10.20
2019-02-14T16:51:28.407Z,10.20
2019-02-14T16:53:58.563Z,10.10
2019-02-14T16:56:30.161Z,10.10
2019-02-14T16:58:59.194Z,10.00
2019-02-14T17:01:28.050Z,10.00
2019-02-14T17:03:58.186Z,10.00
2019-02-14T17:06:27.120Z,9.90
2019-02-14T17:08:56.232Z,9.80
2019-02-14T17:11:25.072Z,9.80
2019-02-14T17:13:54.050Z,9.70
2019-02-14T17:16:22.974Z,9.60
2019-02-14T17:18:51.882Z,9.50
2019-02-14T17:21:20.714Z,9.50
2019-02-14T17:23:49.590Z,9.40
2019-02-14T17:26:18.489Z,9.30
2019-02-14T17:28:47.408Z,9.30
2019-02-14T17:31:16.444Z,9.20
2019-02-14T17:33:45.353Z,9.10
2019-02-14T17:36:14.206Z,9.10
2019-02-14T17:38:43.218Z,9.10
2019-02-14T17:41:12.182Z,9.00
2019-02-14T17:43:41.035Z,8.90
2019-02-14T17:46:10.093Z,8.80
2019-02-14T17:48:38.942Z,8.80
2019-02-14T17:51:07.832Z,8.80
2019-02-14T17:53:37.341Z,8.80
2019-02-14T17:56:06.271Z,8.70
2019-02-14T17:58:35.181Z,8.60
2019-02-14T18:01:04.190Z,8.50
2019-02-14T18:03:38.478Z,8.40
2019-02-14T18:06:08.643Z,8.30
2019-02-14T18:08:37.758Z,8.30
2019-02-14T18:11:06.754Z,8.20
2019-02-14T18:13:43.020Z,8.10
2019-02-14T18:16:11.962Z,8.10
2019-02-14T18:18:46.410Z,8.00
2019-02-14T18:21:18.240Z,8.00
2019-02-14T18:23:48.079Z,7.90
2019-02-14T18:26:21.271Z,7.80
2019-02-14T18:28:52.631Z,7.80
2019-02-14T18:31:25.114Z,7.70
2019-02-14T18:33:54.007Z,7.60
2019-02-14T18:36:22.881Z,7.50
2019-02-14T18:38:51.719Z,7.50
2019-02-14T18:41:20.640Z,7.40
2019-02-14T18:43:49.485Z,7.40
2019-02-14T18:46:18.335Z,7.40
2019-02-14T18:48:47.171Z,7.40
2019-02-14T18:51:16.150Z,7.30
2019-02-14T18:53:48.709Z,7.30
2019-02-14T18:56:17.832Z,7.30
2019-02-14T18:58:46.832Z,7.30
2019-02-14T19:01:15.934Z,7.30
2019-02-14T19:03:44.980Z,7.30
2019-02-14T19:06:14.926Z,7.40
2019-02-14T19:08:44.888Z,7.40
2019-02-14T19:11:16.201Z,7.30
2019-02-14T19:13:45.344Z,7.20
2019-02-14T19:16:14.292Z,7.20
2019-02-14T19:18:44.500Z,7.20
2019-02-14T19:21:13.982Z,7.10
2019-02-14T19:23:43.447Z,7.00
2019-02-14T19:26:12.752Z,7.00
2019-02-14T19:28:41.821Z,6.80
2019-02-14T19:31:10.920Z,6.80
2019-02-14T19:33:40.018Z,6.70
2019-02-14T19:36:09.179Z,6.70
2019-02-14T19:38:38.181Z,6.60
2019-02-14T19:41:07.234Z,6.50
2019-02-14T19:43:36.295Z,6.50
2019-02-14T19:46:05.410Z,6.40
2019-02-14T19:48:34.961Z,6.40
2019-02-14T19:51:05.559Z,6.30
2019-02-14T19:53:35.571Z,6.20
2019-02-14T19:56:04.486Z,6.20
2019-02-14T19:58:33.962Z,6.20
2019-02-14T20:01:03.075Z,6.20
2019-02-14T20:03:32.930Z,6.20
2019-02-14T20:06:02.112Z,6.20
2019-02-14T20:08:31.270Z,6.00
2019-02-14T20:11:00.342Z,6.00
2019-02-14T20:13:30.814Z,6.00
2019-02-14T20:15:59.841Z,5.90
2019-02-14T20:18:28.826Z,5.90
2019-02-14T20:20:59.081Z,5.90
2019-02-14T20:23:28.022Z,5.90
2019-02-14T20:25:57.618Z,5.90
2019-02-14T20:28:26.923Z,6.00
2019-02-14T20:30:56.282Z,6.00
2019-02-14T20:33:26.328Z,5.90
2019-02-14T20:35:55.598Z,5.80
2019-02-14T20:38:27.884Z,5.80
2019-02-14T20:40:57.346Z,5.70
2019-02-14T20:43:26.410Z,5.70
2019-02-14T20:45:55.440Z,5.70
2019-02-14T20:48:24.312Z,5.70
2019-02-14T20:50:53.611Z,5.70
2019-02-14T20:53:22.754Z,5.60
2019-02-14T20:55:51.715Z,5.60
2019-02-14T20:58:20.733Z,5.50
2019-02-14T21:00:50.284Z,5.50
2019-02-14T21:03:19.180Z,5.40
2019-02-14T21:05:48.243Z,5.40
2019-02-14T21:08:18.155Z,5.40
2019-02-14T21:10:47.296Z,5.30
2019-02-14T21:13:17.712Z,5.30
2019-02-14T21:15:47.386Z,5.20
2019-02-14T21:18:17.766Z,5.20
2019-02-14T21:20:47.484Z,5.20
2019-02-14T21:23:16.655Z,5.20
2019-02-14T21:25:45.847Z,5.10
2019-02-14T21:28:16.371Z,5.10
2019-02-14T21:30:45.469Z,5.10
2019-02-14T21:33:14.670Z,5.00
2019-02-14T21:35:43.894Z,5.00
2019-02-14T21:38:13.408Z,5.00
2019-02-14T21:40:42.763Z,5.00
2019-02-14T21:43:11.855Z,5.00
2019-02-14T21:45:41.047Z,5.00
2019-02-14T21:48:10.875Z,5.00
2019-02-14T21:50:40.186Z,5.00
2019-02-14T21:53:09.592Z,4.90
2019-02-14T21:55:38.888Z,5.00
2019-02-14T21:58:08.083Z,5.00
2019-02-14T22:00:37.037Z,5.00
2019-02-14T22:03:06.309Z,4.90
2019-02-14T22:05:35.527Z,4.90
2019-02-14T22:08:04.963Z,4.80
2019-02-14T22:10:34.201Z,4.80
2019-02-14T22:13:03.240Z,4.70
2019-02-14T22:15:32.292Z,4.70
2019-02-14T22:18:01.389Z,4.60
2019-02-14T22:20:30.490Z,4.70
2019-02-14T22:22:59.545Z,4.70
2019-02-14T22:25:28.480Z,4.70
2019-02-14T22:27:57.569Z,4.70
2019-02-14T22:30:28.173Z,4.60
2019-02-14T22:32:57.323Z,4.60
2019-02-14T22:35:26.862Z,4.60
2019-02-14T22:37:55.872Z,4.60
2019-02-14T22:40:24.831Z,4.50
2019-02-14T22:42:56.627Z,4.60
2019-02-14T22:45:26.051Z,4.50
2019-02-14T22:47:55.281Z,4.50
2019-02-14T22:50:25.383Z,4.40
2019-02-14T22:52:54.255Z,4.40
2019-02-14T22:55:23.151Z,4.40
2019-02-14T22:57:52.106Z,4.40
2019-02-14T23:00:29.969Z,4.40
2019-02-14T23:03:10.906Z,4.40
2019-02-14T23:05:40.507Z,4.30
2019-02-14T23:08:09.464Z,4.30
2019-02-14T23:10:38.378Z,4.30
2019-02-14T23:13:07.397Z,4.30
2019-02-14T23:15:42.336Z,4.30
2019-02-14T23:18:12.099Z,4.30
2019-02-14T23:20:41.233Z,4.20
2019-02-14T23:23:11.273Z,4.30
2019-02-14T23:25:41.027Z,4.30
2019-02-14T23:28:10.901Z,4.20
2019-02-14T23:30:45.004Z,4.20
2019-02-14T23:33:21.137Z,4.20
2019-02-14T23:35:50.933Z,4.30
2019-02-14T23:38:24.946Z,4.30
2019-02-14T23:40:54.480Z,4.40
2019-02-14T23:43:25.971Z,4.40
2019-02-14T23:45:56.094Z,4.30
2019-02-14T23:48:36.326Z,4.30
2019-02-14T23:51:06.345Z,4.20
2019-02-14T23:53:35.414Z,4.10
2019-02-14T23:56:04.390Z,4.10
2019-02-14T23:58:33.762Z,4.00
